Time;durP1;ratioP1;P1;durP2;ratioP2;P2;SDS_P1;SDS_P2;PMS_P1;PMS_P2;Temp;Humidity;BMP_temperature;BMP_pressure;BME280_temperature;BME280_humidity;BME280_pressure;Samples;Min_cycle;Max_cycle;Signal;HPM_P1;HPM_P2
2022/08/05 00:01:04;;;;;;;8.68;5.45;;;;;;;;;;1716928;82;21044;-64
2022/08/05 00:03:31;;;;;;;6.83;6.00;;;;;;;;;;1736215;82;21100;-64
2022/08/05 00:05:57;;;;;;;7.45;4.95;;;;;;;;;;1727183;82;21049;-64
2022/08/05 00:08:23;;;;;;;5.78;5.00;;;;;;;;;;1689479;84;22224;-64
2022/08/05 00:10:50;;;;;;;6.28;5.50;;;;;;;;;;1719719;82;21076;-64
2022/08/05 00:13:17;;;;;;;7.20;5.90;;;;;;;;;;1722280;82;21045;-64
2022/08/05 00:15:42;;;;;;;8.48;6.10;;;;;;;;;;1722229;82;21045;-64
2022/08/05 00:18:08;;;;;;;6.42;5.17;;;;;;;;;;1703833;84;21475;-64
2022/08/05 00:20:34;;;;;;;7.72;5.35;;;;;;;;;;1714144;83;22092;-64
2022/08/05 00:23:01;;;;;;;11.38;6.75;;;;;;;;;;1674474;85;21056;-64
2022/08/05 00:25:27;;;;;;;8.18;5.95;;;;;;;;;;1686870;84;21055;-64
2022/08/05 00:27:53;;;;;;;8.80;6.15;;;;;;;;;;1669453;84;21056;-64
2022/08/05 00:30:19;;;;;;;7.42;5.40;;;;;;;;;;1696806;83;21074;-64
2022/08/05 00:32:45;;;;;;;6.85;5.67;;;;;;;;;;1701149;83;22176;-64
2022/08/05 00:35:11;;;;;;;7.80;6.28;;;;;;;;;;1702176;83;21354;-64
2022/08/05 00:37:38;;;;;;;7.97;7.17;;;;;;;;;;1717208;83;21095;-63
2022/08/05 00:40:05;;;;;;;8.08;5.62;;;;;;;;;;1686543;84;21055;-62
2022/08/05 00:42:31;;;;;;;7.50;5.45;;;;;;;;;;1716608;83;21529;-63
2022/08/05 00:44:58;;;;;;;8.93;6.58;;;;;;;;;;1700288;84;21047;-64
2022/08/05 00:47:24;;;;;;;7.83;6.67;;;;;;;;;;1725152;83;21099;-65
2022/08/05 00:49:50;;;;;;;9.38;5.65;;;;;;;;;;1713899;83;21512;-64
2022/08/05 00:52:16;;;;;;;9.45;6.78;;;;;;;;;;1702913;84;21054;-64
2022/08/05 00:54:42;;;;;;;7.05;5.83;;;;;;;;;;1711888;83;21058;-64
2022/08/05 00:57:08;;;;;;;9.55;5.80;;;;;;;;;;1703265;83;21184;-64
2022/08/05 00:59:34;;;;;;;8.13;6.67;;;;;;;;;;1701642;83;21015;-64
2022/08/05 01:04:49;;;;;;;8.83;6.28;;;;;;;;;;1715756;80;74517;-74
2022/08/05 01:07:15;;;;;;;8.90;5.28;;;;;;;;;;1716440;82;21028;-74
2022/08/05 01:09:41;;;;;;;8.45;5.75;;;;;;;;;;1717816;82;22205;-74
2022/08/05 01:12:14;;;;;;;8.13;6.25;;;;;;;;;;1718259;82;21072;-74
2022/08/05 01:14:57;;;;;;;6.45;5.55;;;;;;;;;;1715427;82;21121;-74
2022/08/05 01:17:34;;;;;;;7.87;6.15;;;;;;;;;;1717672;82;21074;-74
2022/08/05 01:20:12;;;;;;;6.92;6.22;;;;;;;;;;1717018;83;21562;-74
2022/08/05 01:22:58;;;;;;;8.23;5.87;;;;;;;;;;1714824;82;21583;-74
2022/08/05 01:25:45;;;;;;;7.15;5.62;;;;;;;;;;1717521;82;21082;-75
2022/08/05 01:28:23;;;;;;;6.85;6.00;;;;;;;;;;1715071;82;21558;-74
2022/08/05 01:30:57;;;;;;;8.15;6.55;;;;;;;;;;1716609;82;21051;-75
2022/08/05 01:33:28;;;;;;;6.95;5.67;;;;;;;;;;1714441;83;21060;-74
2022/08/05 01:35:54;;;;;;;7.30;5.72;;;;;;;;;;1716206;82;21056;-75
2022/08/05 01:38:20;;;;;;;8.05;6.28;;;;;;;;;;1718014;82;21581;-74
2022/08/05 01:40:46;;;;;;;7.05;6.30;;;;;;;;;;1715351;82;21031;-73
2022/08/05 01:43:12;;;;;;;7.97;6.62;;;;;;;;;;1716008;83;21520;-74
2022/08/05 01:45:39;;;;;;;6.35;5.08;;;;;;;;;;1715926;82;21113;-74
2022/08/05 01:48:05;;;;;;;9.78;5.78;;;;;;;;;;1715275;82;21089;-74
2022/08/05 01:50:33;;;;;;;8.53;6.55;;;;;;;;;;1717329;82;21104;-75
2022/08/05 01:53:00;;;;;;;8.35;6.60;;;;;;;;;;1716849;82;21067;-74
2022/08/05 01:55:26;;;;;;;8.00;5.95;;;;;;;;;;1716195;82;21093;-74
2022/08/05 01:57:53;;;;;;;7.30;5.80;;;;;;;;;;1715011;82;21566;-74
2022/08/05 02:00:19;;;;;;;7.62;6.22;;;;;;;;;;1719476;82;21523;-74
2022/08/05 02:02:48;;;;;;;7.00;6.30;;;;;;;;;;1717501;82;21439;-75
2022/08/05 02:05:14;;;;;;;7.15;6.45;;;;;;;;;;1698927;82;21026;-75
2022/08/05 02:07:43;;;;;;;6.58;5.65;;;;;;;;;;1704152;83;21021;-75
2022/08/05 02:10:09;;;;;;;7.22;6.12;;;;;;;;;;1703753;83;21041;-75
2022/08/05 02:12:37;;;;;;;7.62;6.03;;;;;;;;;;1702516;83;21068;-75
2022/08/05 02:15:08;;;;;;;8.03;7.22;;;;;;;;;;1704187;83;21011;-75
2022/08/05 02:17:35;;;;;;;7.47;6.70;;;;;;;;;;1705313;83;21048;-74
2022/08/05 02:20:02;;;;;;;7.55;5.95;;;;;;;;;;1678372;83;21037;-75
2022/08/05 02:22:43;;;;;;;7.12;5.70;;;;;;;;;;1710155;83;22106;-75
2022/08/05 02:25:17;;;;;;;9.28;7.12;;;;;;;;;;1701224;83;21038;-75
2022/08/05 02:27:47;;;;;;;7.90;6.80;;;;;;;;;;1700482;83;21084;-75
2022/08/05 02:30:12;;;;;;;8.25;6.50;;;;;;;;;;1702136;83;21045;-75
2022/08/05 02:32:38;;;;;;;8.18;5.62;;;;;;;;;;1704613;83;21591;-74
2022/08/05 02:35:05;;;;;;;8.18;6.12;;;;;;;;;;1703443;83;21040;-75
2022/08/05 02:37:31;;;;;;;7.90;6.83;;;;;;;;;;1705076;83;22270;-75
2022/08/05 02:39:58;;;;;;;8.50;5.70;;;;;;;;;;1703206;83;21135;-75
2022/08/05 02:42:24;;;;;;;7.28;6.58;;;;;;;;;;1705233;83;21097;-75
2022/08/05 02:44:50;;;;;;;10.30;6.65;;;;;;;;;;1701716;83;21061;-75
2022/08/05 02:47:16;;;;;;;9.08;7.28;;;;;;;;;;1706251;83;21090;-75
2022/08/05 02:49:43;;;;;;;8.10;7.08;;;;;;;;;;1703413;83;22380;-75
2022/08/05 02:52:13;;;;;;;7.33;6.05;;;;;;;;;;1699407;83;21026;-75
2022/08/05 02:54:40;;;;;;;7.85;5.80;;;;;;;;;;1710688;83;21045;-75
2022/08/05 02:57:07;;;;;;;8.43;6.17;;;;;;;;;;1697755;83;21110;-76
2022/08/05 02:59:33;;;;;;;7.20;6.50;;;;;;;;;;1708021;83;21099;-75
2022/08/05 03:01:59;;;;;;;8.23;6.78;;;;;;;;;;1704514;83;21099;-75
2022/08/05 03:04:25;;;;;;;8.58;6.03;;;;;;;;;;1716907;82;21799;-75
2022/08/05 03:06:52;;;;;;;6.83;5.70;;;;;;;;;;1703951;83;21156;-75
2022/08/05 03:09:18;;;;;;;8.20;6.80;;;;;;;;;;1701922;83;21108;-75
2022/08/05 03:11:44;;;;;;;8.20;7.20;;;;;;;;;;1696780;83;21427;-75
2022/08/05 03:14:11;;;;;;;7.25;5.90;;;;;;;;;;1699486;83;21092;-75
2022/08/05 03:16:37;;;;;;;6.90;5.87;;;;;;;;;;1700799;83;21080;-75
2022/08/05 03:19:03;;;;;;;7.92;6.97;;;;;;;;;;1700795;83;21524;-75
2022/08/05 03:21:29;;;;;;;7.65;6.85;;;;;;;;;;1699219;83;21529;-75
2022/08/05 03:23:55;;;;;;;10.15;6.30;;;;;;;;;;1697052;83;21594;-75
2022/08/05 03:26:21;;;;;;;8.00;5.78;;;;;;;;;;1709366;82;20993;-75
2022/08/05 03:28:47;;;;;;;7.87;6.30;;;;;;;;;;1708192;83;21041;-74
2022/08/05 03:31:14;;;;;;;10.03;7.00;;;;;;;;;;1701390;83;21025;-75
2022/08/05 03:35:13;;;;;;;8.03;6.35;;;;;;;;;;1775622;79;22942;-65
2022/08/05 03:37:39;;;;;;;8.78;6.97;;;;;;;;;;1751136;80;21041;-65
2022/08/05 03:40:07;;;;;;;9.53;7.03;;;;;;;;;;1749610;80;21995;-65
2022/08/05 03:42:34;;;;;;;9.40;7.20;;;;;;;;;;1754453;80;21024;-65
2022/08/05 03:45:00;;;;;;;8.53;7.45;;;;;;;;;;1748772;81;21555;-65
2022/08/05 03:47:26;;;;;;;8.45;6.67;;;;;;;;;;1745748;82;21532;-65
2022/08/05 03:49:53;;;;;;;7.62;5.95;;;;;;;;;;1741652;82;21071;-65
2022/08/05 03:52:21;;;;;;;8.45;7.00;;;;;;;;;;1750451;81;21554;-65
2022/08/05 03:54:58;;;;;;;8.68;7.50;;;;;;;;;;1749516;82;21068;-64
2022/08/05 03:57:25;;;;;;;8.35;7.55;;;;;;;;;;1737299;82;21586;-64
2022/08/05 03:59:55;;;;;;;10.03;7.12;;;;;;;;;;1737580;82;21049;-64
2022/08/05 04:02:24;;;;;;;8.43;7.53;;;;;;;;;;1756846;80;21080;-64
2022/08/05 04:04:51;;;;;;;9.03;7.47;;;;;;;;;;1703221;81;21559;-64
2022/08/05 04:07:17;;;;;;;9.90;8.00;;;;;;;;;;1705118;81;21060;-64
2022/08/05 04:09:43;;;;;;;10.05;7.10;;;;;;;;;;1706189;81;21093;-64
2022/08/05 04:12:10;;;;;;;8.10;7.08;;;;;;;;;;1710924;81;21639;-64
2022/08/05 04:14:36;;;;;;;8.98;7.67;;;;;;;;;;1699254;81;21063;-65
2022/08/05 04:17:02;;;;;;;8.68;6.78;;;;;;;;;;1703558;81;21060;-64
2022/08/05 04:19:28;;;;;;;9.33;8.08;;;;;;;;;;1707608;81;21093;-64
2022/08/05 04:21:54;;;;;;;9.25;8.00;;;;;;;;;;1726382;83;21091;-64
2022/08/05 04:24:20;;;;;;;8.08;6.85;;;;;;;;;;1732504;83;21531;-64
2022/08/05 04:26:46;;;;;;;8.75;6.97;;;;;;;;;;1719650;83;21080;-64
2022/08/05 04:29:13;;;;;;;7.67;6.33;;;;;;;;;;1707848;84;21119;-65
2022/08/05 04:31:39;;;;;;;9.10;8.20;;;;;;;;;;1707809;83;21057;-64
2022/08/05 04:34:05;;;;;;;8.83;7.92;;;;;;;;;;1701197;83;21056;-64
2022/08/05 04:36:31;;;;;;;7.25;5.72;;;;;;;;;;1707281;83;21044;-63
2022/08/05 04:38:58;;;;;;;9.58;7.12;;;;;;;;;;1709142;82;21140;-65
2022/08/05 04:41:24;;;;;;;9.63;7.15;;;;;;;;;;1686924;82;21085;-64
2022/08/05 04:43:50;;;;;;;8.28;7.47;;;;;;;;;;1692699;82;21068;-64
2022/08/05 04:46:16;;;;;;;8.65;7.40;;;;;;;;;;1692120;85;21077;-63
2022/08/05 04:48:42;;;;;;;9.10;6.62;;;;;;;;;;1691736;84;21100;-65
2022/08/05 04:51:11;;;;;;;8.33;6.70;;;;;;;;;;1663492;85;21580;-64
2022/08/05 04:53:36;;;;;;;8.95;6.72;;;;;;;;;;1682531;85;21571;-64
2022/08/05 04:56:03;;;;;;;8.88;7.17;;;;;;;;;;1661454;86;21081;-64
2022/08/05 04:58:29;;;;;;;8.98;7.30;;;;;;;;;;1668386;86;21405;-64
2022/08/05 05:00:55;;;;;;;8.18;5.78;;;;;;;;;;1661663;86;21067;-64
2022/08/05 05:03:21;;;;;;;13.00;10.45;;;;;;;;;;1685170;85;21045;-63
2022/08/05 05:05:48;;;;;;;10.43;9.10;;;;;;;;;;1690443;82;21172;-64
2022/08/05 05:08:14;;;;;;;9.48;8.48;;;;;;;;;;1687450;82;21092;-64
2022/08/05 05:10:42;;;;;;;10.82;6.87;;;;;;;;;;1696349;82;21104;-65
2022/08/05 05:13:09;;;;;;;8.33;7.05;;;;;;;;;;1692578;82;21086;-64
2022/08/05 05:15:35;;;;;;;9.53;8.53;;;;;;;;;;1687518;82;21721;-65
2022/08/05 05:18:01;;;;;;;9.23;6.67;;;;;;;;;;1660536;84;21040;-63
2022/08/05 05:20:27;;;;;;;9.90;7.95;;;;;;;;;;1654068;86;21030;-63
2022/08/05 05:22:53;;;;;;;12.20;9.98;;;;;;;;;;1684927;85;21099;-63
2022/08/05 05:25:19;;;;;;;11.33;10.10;;;;;;;;;;1660735;86;21092;-63
2022/08/05 05:27:45;;;;;;;11.68;8.28;;;;;;;;;;1660781;86;21584;-64
2022/08/05 05:30:13;;;;;;;9.38;6.78;;;;;;;;;;1660677;85;21565;-64
2022/08/05 05:32:39;;;;;;;8.60;7.10;;;;;;;;;;1651080;86;21556;-63
2022/08/05 05:35:06;;;;;;;8.13;6.62;;;;;;;;;;1672788;84;21148;-63
2022/08/05 05:37:32;;;;;;;8.58;7.05;;;;;;;;;;1676174;84;21004;-64
2022/08/05 05:39:58;;;;;;;8.33;7.47;;;;;;;;;;1679409;84;21026;-63
2022/08/05 05:42:24;;;;;;;9.33;7.15;;;;;;;;;;1683611;85;21037;-63
2022/08/05 05:44:50;;;;;;;8.55;6.40;;;;;;;;;;1665381;85;21105;-63
2022/08/05 05:47:16;;;;;;;8.25;6.28;;;;;;;;;;1681990;83;21037;-64
2022/08/05 05:49:43;;;;;;;9.10;7.45;;;;;;;;;;1684844;84;21098;-63
2022/08/05 05:52:08;;;;;;;10.03;7.90;;;;;;;;;;1689042;84;21057;-63
2022/08/05 05:54:35;;;;;;;11.33;7.10;;;;;;;;;;1655207;87;21045;-63
2022/08/05 05:57:01;;;;;;;10.23;7.22;;;;;;;;;;1668468;85;21565;-63
2022/08/05 05:59:27;;;;;;;10.50;7.97;;;;;;;;;;1628013;87;21105;-63
2022/08/05 06:01:53;;;;;;;8.90;8.00;;;;;;;;;;1656876;85;21057;-63
2022/08/05 06:04:19;;;;;;;10.03;7.10;;;;;;;;;;1654845;85;21100;-63
2022/08/05 06:06:45;;;;;;;9.00;7.53;;;;;;;;;;1655261;86;21099;-63
2022/08/05 06:09:12;;;;;;;8.35;7.45;;;;;;;;;;1674751;85;21518;-63
2022/08/05 06:11:38;;;;;;;8.75;6.62;;;;;;;;;;1672186;85;21079;-63
2022/08/05 06:14:04;;;;;;;10.95;8.28;;;;;;;;;;1665476;84;21100;-63
2022/08/05 06:16:31;;;;;;;8.03;6.10;;;;;;;;;;1684673;83;21077;-63
2022/08/05 06:18:58;;;;;;;9.08;7.40;;;;;;;;;;1664564;85;21591;-63
2022/08/05 06:21:24;;;;;;;11.78;8.40;;;;;;;;;;1684298;85;21021;-63
2022/08/05 06:23:50;;;;;;;10.82;9.00;;;;;;;;;;1684672;85;21080;-63
2022/08/05 06:26:17;;;;;;;11.08;7.28;;;;;;;;;;1655830;87;21069;-63
2022/08/05 06:28:43;;;;;;;11.45;7.40;;;;;;;;;;1670584;85;21046;-63
2022/08/05 06:31:10;;;;;;;7.67;6.35;;;;;;;;;;1646917;87;21050;-62
2022/08/05 06:33:36;;;;;;;9.68;8.20;;;;;;;;;;1649661;86;21604;-63
2022/08/05 06:36:03;;;;;;;9.70;7.78;;;;;;;;;;1636040;87;21093;-62
2022/08/05 06:38:29;;;;;;;10.68;8.05;;;;;;;;;;1653514;87;21064;-62
2022/08/05 06:40:55;;;;;;;10.08;9.00;;;;;;;;;;1669344;85;21650;-62
2022/08/05 06:43:22;;;;;;;9.73;7.50;;;;;;;;;;1682696;85;21014;-63
2022/08/05 06:45:48;;;;;;;10.98;9.48;;;;;;;;;;1679080;85;21053;-62
2022/08/05 06:48:14;;;;;;;11.00;7.60;;;;;;;;;;1658665;83;21093;-62
2022/08/05 06:50:40;;;;;;;11.38;8.93;;;;;;;;;;1665931;85;22126;-63
2022/08/05 06:53:06;;;;;;;10.85;8.70;;;;;;;;;;1673208;84;21065;-63
2022/08/05 06:55:33;;;;;;;10.70;9.55;;;;;;;;;;1682596;85;21089;-63
2022/08/05 06:57:59;;;;;;;10.65;7.53;;;;;;;;;;1682863;85;21096;-63
2022/08/05 07:00:25;;;;;;;9.68;7.60;;;;;;;;;;1682751;85;21101;-63
2022/08/05 07:02:51;;;;;;;10.53;8.23;;;;;;;;;;1684279;85;21559;-63
2022/08/05 07:05:17;;;;;;;12.03;9.85;;;;;;;;;;1676511;85;21061;-63
2022/08/05 07:07:46;;;;;;;12.43;11.10;;;;;;;;;;1670700;86;21156;-63
2022/08/05 07:10:12;;;;;;;12.60;9.03;;;;;;;;;;1672980;85;21069;-63
2022/08/05 07:18:08;;;;;;;13.10;11.70;;;;;;;;;;1680863;85;21041;-63
2022/08/05 07:20:34;;;;;;;12.80;9.70;;;;;;;;;;1669516;85;21134;-63
2022/08/05 07:23:00;;;;;;;12.40;10.38;;;;;;;;;;1678899;83;21089;-63
2022/08/05 07:25:26;;;;;;;14.95;12.13;;;;;;;;;;1669119;85;21548;-63
2022/08/05 07:27:53;;;;;;;13.38;10.08;;;;;;;;;;1657316;86;21031;-63
2022/08/05 07:30:19;;;;;;;14.10;10.43;;;;;;;;;;1658769;86;21061;-64
2022/08/05 07:32:45;;;;;;;13.62;11.90;;;;;;;;;;1666071;86;20983;-63
2022/08/05 07:35:11;;;;;;;13.80;11.88;;;;;;;;;;1662032;85;21333;-64
2022/08/05 07:37:37;;;;;;;13.45;10.75;;;;;;;;;;1611438;89;21012;-64
2022/08/05 07:40:04;;;;;;;14.70;11.28;;;;;;;;;;1664753;86;21014;-64
2022/08/05 07:42:30;;;;;;;14.70;11.35;;;;;;;;;;1662791;86;21032;-64
2022/08/05 07:44:56;;;;;;;14.60;12.68;;;;;;;;;;1652905;86;21043;-64
2022/08/05 07:47:22;;;;;;;14.40;10.35;;;;;;;;;;1661666;86;21011;-64
2022/08/05 07:49:50;;;;;;;12.58;9.93;;;;;;;;;;1662198;86;21782;-62
2022/08/05 07:52:16;;;;;;;13.43;11.88;;;;;;;;;;1661834;86;21130;-63
2022/08/05 07:54:42;;;;;;;13.25;9.75;;;;;;;;;;1662273;86;21118;-62
2022/08/05 07:57:08;;;;;;;14.45;11.03;;;;;;;;;;1656860;86;21122;-62
2022/08/05 07:59:34;;;;;;;13.28;11.88;;;;;;;;;;1663660;86;21097;-63
2022/08/05 08:02:01;;;;;;;13.72;11.93;;;;;;;;;;1663583;85;21656;-62
2022/08/05 08:04:27;;;;;;;12.75;11.20;;;;;;;;;;1682620;85;21094;-63
2022/08/05 08:06:54;;;;;;;12.60;10.28;;;;;;;;;;1652963;85;21037;-63
2022/08/05 08:09:23;;;;;;;13.58;10.58;;;;;;;;;;1666277;85;21145;-63
2022/08/05 08:11:49;;;;;;;13.68;11.08;;;;;;;;;;1656317;86;21082;-62
2022/08/05 08:14:16;;;;;;;13.05;10.58;;;;;;;;;;1661264;86;21098;-63
2022/08/05 08:16:42;;;;;;;12.07;10.85;;;;;;;;;;1657036;86;21045;-62
2022/08/05 08:19:08;;;;;;;13.03;9.25;;;;;;;;;;1664148;85;21160;-62
2022/08/05 08:21:34;;;;;;;12.07;9.38;;;;;;;;;;1663292;86;21071;-62
2022/08/05 08:24:01;;;;;;;11.20;9.95;;;;;;;;;;1665015;86;21097;-62
2022/08/05 08:26:27;;;;;;;12.13;10.88;;;;;;;;;;1665176;85;21142;-63
2022/08/05 08:28:53;;;;;;;12.35;11.05;;;;;;;;;;1665043;86;21629;-62
2022/08/05 08:31:19;;;;;;;11.33;8.80;;;;;;;;;;1665083;86;21063;-63
2022/08/05 08:33:45;;;;;;;14.20;10.23;;;;;;;;;;1664867;86;21082;-63
2022/08/05 08:36:12;;;;;;;10.72;9.23;;;;;;;;;;1671702;85;21086;-62
2022/08/05 08:38:37;;;;;;;12.45;11.10;;;;;;;;;;1661072;86;21090;-63
2022/08/05 08:41:06;;;;;;;12.63;10.25;;;;;;;;;;1691780;85;21037;-63
2022/08/05 08:43:32;;;;;;;11.83;9.13;;;;;;;;;;1692194;83;21578;-64
2022/08/05 08:45:58;;;;;;;12.05;9.40;;;;;;;;;;1691232;83;21572;-64
2022/08/05 08:48:25;;;;;;;16.70;12.88;;;;;;;;;;1659065;84;21077;-63
2022/08/05 08:50:51;;;;;;;13.13;10.35;;;;;;;;;;1646884;86;21104;-62
2022/08/05 08:53:17;;;;;;;12.88;11.57;;;;;;;;;;1661464;84;21510;-62
2022/08/05 08:55:43;;;;;;;12.18;9.55;;;;;;;;;;1663588;85;21539;-63
2022/08/05 08:58:09;;;;;;;12.88;10.13;;;;;;;;;;1654206;86;21073;-63
2022/08/05 09:00:36;;;;;;;12.37;10.95;;;;;;;;;;1652627;86;21033;-63
2022/08/05 09:03:04;;;;;;;13.68;12.07;;;;;;;;;;1692396;83;21195;-63
2022/08/05 09:05:30;;;;;;;12.35;10.28;;;;;;;;;;1691762;84;21112;-63
2022/08/05 09:07:57;;;;;;;12.95;10.48;;;;;;;;;;1695048;83;21077;-63
2022/08/05 09:10:23;;;;;;;12.03;9.45;;;;;;;;;;1694663;83;21059;-63
2022/08/05 09:12:50;;;;;;;15.43;10.68;;;;;;;;;;1692059;85;21051;-64
2022/08/05 09:15:16;;;;;;;11.50;10.35;;;;;;;;;;1701910;83;21037;-62
2022/08/05 09:17:43;;;;;;;13.35;11.95;;;;;;;;;;1693187;83;21052;-61
2022/08/05 09:20:10;;;;;;;12.50;9.88;;;;;;;;;;1694872;83;21073;-61
2022/08/05 09:22:38;;;;;;;13.55;10.75;;;;;;;;;;1695832;83;21053;-62
2022/08/05 09:25:04;;;;;;;13.00;10.90;;;;;;;;;;1663737;85;21083;-62
2022/08/05 09:27:31;;;;;;;12.35;11.05;;;;;;;;;;1692003;83;20974;-63
2022/08/05 09:29:58;;;;;;;12.30;11.10;;;;;;;;;;1692341;83;20985;-63
2022/08/05 09:32:26;;;;;;;13.48;9.60;;;;;;;;;;1691808;85;21013;-63
2022/08/05 09:34:53;;;;;;;11.40;9.35;;;;;;;;;;1659283;84;21131;-63
2022/08/05 09:37:21;;;;;;;13.70;10.95;;;;;;;;;;1656959;86;21115;-63
2022/08/05 09:39:47;;;;;;;13.32;11.88;;;;;;;;;;1656139;86;21590;-63
2022/08/05 09:42:17;;;;;;;13.38;11.78;;;;;;;;;;1658414;86;21097;-64
2022/08/05 09:44:46;;;;;;;13.08;11.68;;;;;;;;;;1650629;85;21056;-65
2022/08/05 09:47:17;;;;;;;14.18;10.82;;;;;;;;;;1647071;87;21101;-65
2022/08/05 09:49:54;;;;;;;13.05;9.90;;;;;;;;;;1639849;86;21101;-65
2022/08/05 09:52:22;;;;;;;12.20;9.73;;;;;;;;;;1639350;87;21589;-64
2022/08/05 09:54:53;;;;;;;12.85;10.68;;;;;;;;;;1638239;87;21206;-64
2022/08/05 09:57:33;;;;;;;12.98;10.93;;;;;;;;;;1640997;87;21055;-64
2022/08/05 10:00:07;;;;;;;12.40;10.65;;;;;;;;;;1640923;87;21022;-63
2022/08/05 10:02:34;;;;;;;11.33;9.03;;;;;;;;;;1638157;87;21117;-65
2022/08/05 10:05:04;;;;;;;12.98;9.40;;;;;;;;;;1647186;85;21081;-65
2022/08/05 10:07:45;;;;;;;14.30;12.33;;;;;;;;;;1618585;88;21137;-65
2022/08/05 10:10:11;;;;;;;13.38;12.07;;;;;;;;;;1646143;87;21602;-65
2022/08/05 10:12:43;;;;;;;13.00;11.03;;;;;;;;;;1668473;86;21096;-64
2022/08/05 10:15:12;;;;;;;13.75;12.15;;;;;;;;;;1664239;86;21069;-64
2022/08/05 10:17:38;;;;;;;13.90;9.68;;;;;;;;;;1641142;87;21027;-64
2022/08/05 10:20:05;;;;;;;10.88;9.03;;;;;;;;;;1630360;88;21061;-64
2022/08/05 10:22:31;;;;;;;14.23;11.55;;;;;;;;;;1628107;87;21098;-64
2022/08/05 10:24:57;;;;;;;15.03;13.53;;;;;;;;;;1634258;87;21074;-64
2022/08/05 10:27:23;;;;;;;14.33;12.93;;;;;;;;;;1637991;86;21068;-64
2022/08/05 10:29:50;;;;;;;15.10;13.50;;;;;;;;;;1657048;86;21102;-64
2022/08/05 10:32:16;;;;;;;14.05;10.78;;;;;;;;;;1654795;86;21030;-64
2022/08/05 10:34:42;;;;;;;12.65;10.40;;;;;;;;;;1640290;86;21751;-64
2022/08/05 10:37:10;;;;;;;16.17;11.20;;;;;;;;;;1650101;86;21368;-64
2022/08/05 10:39:36;;;;;;;13.93;11.85;;;;;;;;;;1660840;84;21028;-64
2022/08/05 10:42:13;;;;;;;15.58;12.60;;;;;;;;;;1677055;85;21620;-64
2022/08/05 10:44:41;;;;;;;14.18;10.23;;;;;;;;;;1674760;85;21586;-63
2022/08/05 10:47:11;;;;;;;15.78;10.40;;;;;;;;;;1669150;85;21122;-64
2022/08/05 10:49:39;;;;;;;13.50;11.45;;;;;;;;;;1674986;85;21067;-64
2022/08/05 10:52:05;;;;;;;12.90;11.20;;;;;;;;;;1643179;86;21056;-65
2022/08/05 10:54:50;;;;;;;19.55;17.45;;;;;;;;;;1661730;86;21083;-65
2022/08/05 10:57:26;;;;;;;15.68;14.07;;;;;;;;;;1671747;86;21110;-64
2022/08/05 11:00:09;;;;;;;13.72;12.28;;;;;;;;;;1659750;86;21581;-65
2022/08/05 11:02:35;;;;;;;;;;;;;;;;;;1668674;86;21099;-64
2022/08/05 11:05:03;;;;;;;12.13;9.53;;;;;;;;;;1663696;86;20194;-63
2022/08/05 11:07:30;;;;;;;13.32;10.55;;;;;;;;;;1644838;84;21533;-63
2022/08/05 11:09:56;;;;;;;15.03;10.82;;;;;;;;;;1653653;86;21252;-64
2022/08/05 11:12:25;;;;;;;13.28;11.80;;;;;;;;;;1648947;86;21064;-63
2022/08/05 11:15:04;;;;;;;17.23;13.30;;;;;;;;;;1680312;84;21098;-64
2022/08/05 11:17:33;;;;;;;13.32;10.82;;;;;;;;;;1700124;84;21021;-64
2022/08/05 11:19:59;;;;;;;14.73;13.05;;;;;;;;;;1701468;84;21124;-64
2022/08/05 11:22:42;;;;;;;17.02;13.32;;;;;;;;;;1706589;83;21008;-64
2022/08/05 11:25:32;;;;;;;13.48;12.10;;;;;;;;;;1701693;83;21041;-63
2022/08/05 11:27:56;;;;;;;15.72;13.48;;;;;;;;;;1710415;83;21579;-63
2022/08/05 11:30:22;;;;;;;14.47;12.98;;;;;;;;;;1695939;83;21061;-63
2022/08/05 11:32:49;;;;;;;16.62;11.48;;;;;;;;;;1692839;83;21215;-63
2022/08/05 11:35:34;;;;;;;14.83;10.23;;;;;;;;;;1682459;83;23716;-64
2022/08/05 11:38:00;;;;;;;17.45;11.20;;;;;;;;;;1662847;86;21587;-64
2022/08/05 11:40:45;;;;;;;13.88;12.37;;;;;;;;;;1667769;84;21528;-63
2022/08/05 11:43:12;;;;;;;15.28;12.05;;;;;;;;;;1666319;86;21131;-63
2022/08/05 11:45:45;;;;;;;15.85;13.25;;;;;;;;;;1666000;86;21084;-64
2022/08/05 11:48:11;;;;;;;14.65;12.93;;;;;;;;;;1685009;84;21572;-63
2022/08/05 11:50:38;;;;;;;15.25;13.43;;;;;;;;;;1694818;84;21048;-64
2022/08/05 11:53:04;;;;;;;13.85;12.45;;;;;;;;;;1671825;84;21029;-64
2022/08/05 11:55:30;;;;;;;13.80;11.28;;;;;;;;;;1667870;86;21088;-63
2022/08/05 11:57:57;;;;;;;15.05;11.25;;;;;;;;;;1661712;84;21115;-64
2022/08/05 12:00:29;;;;;;;15.83;12.03;;;;;;;;;;1641981;86;21140;-64
2022/08/05 12:02:55;;;;;;;18.80;13.20;;;;;;;;;;1672436;84;21115;-64
2022/08/05 12:05:27;;;;;;;17.00;15.23;;;;;;;;;;1656436;85;21151;-65
2022/08/05 12:07:55;;;;;;;14.63;11.73;;;;;;;;;;1641112;87;21087;-64
2022/08/05 12:10:21;;;;;;;12.50;10.53;;;;;;;;;;1666007;84;21064;-64
2022/08/05 12:12:48;;;;;;;15.53;13.22;;;;;;;;;;1667363;85;21108;-63
2022/08/05 12:15:20;;;;;;;14.63;12.98;;;;;;;;;;1667774;86;21072;-63
2022/08/05 12:17:46;;;;;;;13.75;11.38;;;;;;;;;;1671402;84;21897;-63
2022/08/05 12:20:13;;;;;;;14.95;12.63;;;;;;;;;;1656258;84;21096;-63
2022/08/05 12:22:39;;;;;;;15.15;13.08;;;;;;;;;;1662268;86;21100;-63
2022/08/05 12:25:06;;;;;;;15.38;12.37;;;;;;;;;;1668032;86;21098;-63
2022/08/05 12:27:32;;;;;;;15.48;13.60;;;;;;;;;;1668007;86;21586;-63
2022/08/05 12:30:00;;;;;;;13.32;11.38;;;;;;;;;;1667586;85;21118;-63
2022/08/05 12:32:26;;;;;;;13.78;11.45;;;;;;;;;;1668051;86;21110;-64
2022/08/05 12:34:53;;;;;;;14.73;12.47;;;;;;;;;;1668164;86;21116;-64
2022/08/05 12:37:19;;;;;;;12.98;10.18;;;;;;;;;;1668437;84;21095;-63
2022/08/05 12:39:45;;;;;;;13.28;10.75;;;;;;;;;;1667632;85;21088;-63
2022/08/05 12:42:12;;;;;;;13.50;11.90;;;;;;;;;;1667981;86;21084;-64
2022/08/05 12:44:38;;;;;;;13.58;10.45;;;;;;;;;;1668651;84;21080;-64
2022/08/05 12:47:04;;;;;;;13.88;12.45;;;;;;;;;;1667359;85;21586;-64
2022/08/05 12:49:43;;;;;;;11.83;10.43;;;;;;;;;;1666825;84;21079;-64
2022/08/05 12:52:13;;;;;;;11.93;10.63;;;;;;;;;;1662142;86;21056;-64
2022/08/05 12:54:39;;;;;;;14.07;12.68;;;;;;;;;;1668262;86;21147;-64
2022/08/05 12:57:06;;;;;;;14.20;12.75;;;;;;;;;;1685234;84;21042;-64
2022/08/05 12:59:34;;;;;;;12.78;10.78;;;;;;;;;;1649866;86;21079;-64
2022/08/05 13:02:04;;;;;;;14.05;11.25;;;;;;;;;;1667957;84;21069;-65
2022/08/05 13:04:31;;;;;;;14.13;11.95;;;;;;;;;;1668183;85;21104;-64
2022/08/05 13:06:58;;;;;;;13.48;12.00;;;;;;;;;;1662475;85;21060;-64
2022/08/05 13:09:25;;;;;;;18.23;13.22;;;;;;;;;;1656766;86;21060;-64
2022/08/05 13:11:53;;;;;;;17.37;13.20;;;;;;;;;;1668166;86;21060;-64
2022/08/05 13:14:21;;;;;;;12.03;10.70;;;;;;;;;;1667920;86;21064;-65
2022/08/05 13:16:48;;;;;;;13.28;11.60;;;;;;;;;;1667917;86;21051;-64
2022/08/05 13:19:15;;;;;;;14.25;12.73;;;;;;;;;;1667960;84;21052;-65
2022/08/05 13:21:41;;;;;;;14.13;12.65;;;;;;;;;;1668541;84;21116;-64
2022/08/05 13:24:07;;;;;;;15.45;12.35;;;;;;;;;;1666746;86;21127;-64
2022/08/05 13:26:33;;;;;;;14.10;12.70;;;;;;;;;;1672693;84;21537;-64
2022/08/05 13:28:59;;;;;;;17.77;11.73;;;;;;;;;;1671173;84;21580;-65
2022/08/05 13:31:25;;;;;;;13.70;12.30;;;;;;;;;;1667971;86;21579;-64
2022/08/05 13:33:51;;;;;;;11.73;9.80;;;;;;;;;;1668032;86;21084;-64
2022/08/05 13:36:18;;;;;;;11.97;9.83;;;;;;;;;;1667832;86;21095;-64
2022/08/05 13:38:44;;;;;;;13.45;10.48;;;;;;;;;;1667936;86;21076;-65
2022/08/05 13:41:10;;;;;;;14.93;12.20;;;;;;;;;;1683335;84;21137;-64
2022/08/05 13:43:36;;;;;;;11.60;10.35;;;;;;;;;;1667704;85;21013;-64
2022/08/05 13:46:02;;;;;;;12.13;10.90;;;;;;;;;;1681091;84;21560;-65
2022/08/05 13:48:28;;;;;;;11.85;10.65;;;;;;;;;;1658244;84;21120;-64
2022/08/05 13:50:55;;;;;;;11.60;10.40;;;;;;;;;;1681640;84;21046;-64
2022/08/05 13:53:21;;;;;;;12.23;10.50;;;;;;;;;;1657682;86;21087;-64
2022/08/05 13:55:47;;;;;;;12.30;10.55;;;;;;;;;;1667750;86;21217;-65
2022/08/05 13:58:13;;;;;;;13.05;11.68;;;;;;;;;;1665986;85;21092;-64
2022/08/05 14:00:39;;;;;;;12.88;10.13;;;;;;;;;;1667653;84;21513;-65
2022/08/05 14:03:06;;;;;;;12.58;11.28;;;;;;;;;;1667715;84;21116;-64
2022/08/05 14:05:32;;;;;;;12.75;11.45;;;;;;;;;;1667793;86;21103;-64
2022/08/05 14:07:58;;;;;;;12.98;11.60;;;;;;;;;;1674392;84;21017;-65
2022/08/05 14:10:25;;;;;;;10.93;9.40;;;;;;;;;;1668193;84;21021;-65
2022/08/05 14:12:51;;;;;;;11.68;10.13;;;;;;;;;;1667606;86;21053;-64
2022/08/05 14:15:17;;;;;;;12.43;11.20;;;;;;;;;;1673120;84;21020;-64
2022/08/05 14:17:44;;;;;;;12.58;11.30;;;;;;;;;;1671130;83;21528;-65
2022/08/05 14:20:10;;;;;;;14.10;12.55;;;;;;;;;;1668212;86;21065;-65
2022/08/05 14:22:37;;;;;;;12.28;11.03;;;;;;;;;;1668406;84;21531;-64
2022/08/05 14:25:04;;;;;;;10.10;9.00;;;;;;;;;;1667976;86;21106;-64
2022/08/05 14:27:31;;;;;;;11.53;9.75;;;;;;;;;;1667764;86;21091;-64
2022/08/05 14:29:57;;;;;;;11.78;10.65;;;;;;;;;;1668545;84;21638;-64
2022/08/05 14:32:24;;;;;;;12.05;10.63;;;;;;;;;;1666460;86;21064;-64
2022/08/05 14:34:50;;;;;;;12.18;10.98;;;;;;;;;;1668369;84;21039;-63
2022/08/05 14:37:16;;;;;;;10.38;9.23;;;;;;;;;;1668274;84;21015;-63
2022/08/05 14:39:43;;;;;;;11.00;9.43;;;;;;;;;;1653478;87;21197;-65
2022/08/05 14:42:09;;;;;;;10.45;9.20;;;;;;;;;;1653872;87;21575;-64